sensor_id;sensor_type;location;lat;lon;timestamp;P1;durP1;ratioP1;P2;durP2;ratioP2
67715;SDS011;54508;43.238;25.306;2022-12-24T00:02:06;24.95;;;16.60;;
67715;SDS011;54508;43.238;25.306;2022-12-24T00:04:31;22.92;;;16.45;;
67715;SDS011;54508;43.238;25.306;2022-12-24T00:06:56;22.23;;;16.33;;
67715;SDS011;54508;43.238;25.306;2022-12-24T00:09:22;24.13;;;16.33;;
67715;SDS011;54508;43.238;25.306;2022-12-24T00:11:47;23.50;;;15.83;;
67715;SDS011;54508;43.238;25.306;2022-12-24T00:14:13;22.75;;;15.23;;
67715;SDS011;54508;43.238;25.306;2022-12-24T00:16:38;22.05;;;15.80;;
67715;SDS011;54508;43.238;25.306;2022-12-24T00:19:04;20.20;;;14.43;;
67715;SDS011;54508;43.238;25.306;2022-12-24T00:21:29;19.60;;;14.23;;
67715;SDS011;54508;43.238;25.306;2022-12-24T00:23:54;21.20;;;15.07;;
67715;SDS011;54508;43.238;25.306;2022-12-24T00:26:20;21.83;;;15.68;;
67715;SDS011;54508;43.238;25.306;2022-12-24T00:28:45;21.33;;;14.07;;
67715;SDS011;54508;43.238;25.306;2022-12-24T00:31:12;19.93;;;14.03;;
67715;SDS011;54508;43.238;25.306;2022-12-24T00:33:42;20.67;;;13.80;;
67715;SDS011;54508;43.238;25.306;2022-12-24T00:36:08;17.07;;;12.63;;
67715;SDS011;54508;43.238;25.306;2022-12-24T00:38:34;21.90;;;13.83;;
67715;SDS011;54508;43.238;25.306;2022-12-24T00:41:00;18.30;;;13.65;;
67715;SDS011;54508;43.238;25.306;2022-12-24T00:43:26;19.53;;;13.33;;
67715;SDS011;54508;43.238;25.306;2022-12-24T00:45:52;18.60;;;12.73;;
67715;SDS011;54508;43.238;25.306;2022-12-24T00:48:18;18.17;;;12.93;;
67715;SDS011;54508;43.238;25.306;2022-12-24T00:50:43;18.70;;;13.05;;
67715;SDS011;54508;43.238;25.306;2022-12-24T00:53:09;19.70;;;12.80;;
67715;SDS011;54508;43.238;25.306;2022-12-24T00:55:34;18.53;;;11.83;;
67715;SDS011;54508;43.238;25.306;2022-12-24T00:58:00;16.77;;;12.02;;
67715;SDS011;54508;43.238;25.306;2022-12-24T01:00:25;16.45;;;11.05;;
67715;SDS011;54508;43.238;25.306;2022-12-24T01:02:50;16.47;;;11.67;;
67715;SDS011;54508;43.238;25.306;2022-12-24T01:05:16;16.20;;;11.50;;
67715;SDS011;54508;43.238;25.306;2022-12-24T01:07:44;15.20;;;11.38;;
67715;SDS011;54508;43.238;25.306;2022-12-24T01:10:15;17.98;;;10.90;;
67715;SDS011;54508;43.238;25.306;2022-12-24T01:12:42;14.48;;;10.77;;
67715;SDS011;54508;43.238;25.306;2022-12-24T01:15:08;15.63;;;10.63;;
67715;SDS011;54508;43.238;25.306;2022-12-24T01:17:34;15.57;;;10.98;;
67715;SDS011;54508;43.238;25.306;2022-12-24T01:20:00;14.67;;;10.10;;
67715;SDS011;54508;43.238;25.306;2022-12-24T01:22:25;16.45;;;10.70;;
67715;SDS011;54508;43.238;25.306;2022-12-24T01:24:51;14.83;;;10.00;;
67715;SDS011;54508;43.238;25.306;2022-12-24T01:27:16;15.27;;;10.27;;
67715;SDS011;54508;43.238;25.306;2022-12-24T01:29:42;11.93;;;9.40;;
67715;SDS011;54508;43.238;25.306;2022-12-24T01:32:07;13.73;;;10.27;;
67715;SDS011;54508;43.238;25.306;2022-12-24T01:34:33;14.63;;;9.83;;
67715;SDS011;54508;43.238;25.306;2022-12-24T01:36:58;14.43;;;9.50;;
67715;SDS011;54508;43.238;25.306;2022-12-24T01:39:24;13.50;;;9.60;;
67715;SDS011;54508;43.238;25.306;2022-12-24T01:41:49;12.45;;;9.02;;
67715;SDS011;54508;43.238;25.306;2022-12-24T01:44:34;13.02;;;9.07;;
67715;SDS011;54508;43.238;25.306;2022-12-24T01:49:47;13.40;;;9.65;;
67715;SDS011;54508;43.238;25.306;2022-12-24T01:52:20;12.77;;;9.13;;
67715;SDS011;54508;43.238;25.306;2022-12-24T01:54:51;12.25;;;8.75;;
67715;SDS011;54508;43.238;25.306;2022-12-24T02:00:14;11.52;;;8.82;;
67715;SDS011;54508;43.238;25.306;2022-12-24T02:02:41;10.38;;;7.63;;
67715;SDS011;54508;43.238;25.306;2022-12-24T02:05:10;11.25;;;8.40;;
67715;SDS011;54508;43.238;25.306;2022-12-24T02:07:41;11.32;;;7.97;;
67715;SDS011;54508;43.238;25.306;2022-12-24T02:10:08;10.23;;;7.85;;
67715;SDS011;54508;43.238;25.306;2022-12-24T02:12:35;10.57;;;7.82;;
67715;SDS011;54508;43.238;25.306;2022-12-24T02:15:01;12.23;;;7.65;;
67715;SDS011;54508;43.238;25.306;2022-12-24T02:20:17;11.43;;;7.65;;
67715;SDS011;54508;43.238;25.306;2022-12-24T02:31:25;9.75;;;7.15;;
67715;SDS011;54508;43.238;25.306;2022-12-24T02:36:25;9.13;;;6.97;;
67715;SDS011;54508;43.238;25.306;2022-12-24T02:38:59;9.55;;;7.38;;
67715;SDS011;54508;43.238;25.306;2022-12-24T02:41:32;9.43;;;6.95;;
67715;SDS011;54508;43.238;25.306;2022-12-24T02:44:19;9.15;;;6.97;;
67715;SDS011;54508;43.238;25.306;2022-12-24T02:46:47;10.52;;;6.93;;
67715;SDS011;54508;43.238;25.306;2022-12-24T02:49:13;9.98;;;7.50;;
67715;SDS011;54508;43.238;25.306;2022-12-24T02:51:38;9.73;;;7.22;;
67715;SDS011;54508;43.238;25.306;2022-12-24T02:54:04;7.30;;;6.23;;
67715;SDS011;54508;43.238;25.306;2022-12-24T03:12:49;8.77;;;6.53;;
67715;SDS011;54508;43.238;25.306;2022-12-24T03:15:21;8.48;;;5.95;;
67715;SDS011;54508;43.238;25.306;2022-12-24T03:17:49;8.55;;;6.30;;
67715;SDS011;54508;43.238;25.306;2022-12-24T03:20:21;9.60;;;6.90;;
67715;SDS011;54508;43.238;25.306;2022-12-24T03:22:56;10.07;;;6.57;;
67715;SDS011;54508;43.238;25.306;2022-12-24T03:25:21;8.60;;;6.33;;
67715;SDS011;54508;43.238;25.306;2022-12-24T03:27:48;8.48;;;6.13;;
67715;SDS011;54508;43.238;25.306;2022-12-24T03:30:14;8.00;;;6.05;;
67715;SDS011;54508;43.238;25.306;2022-12-24T03:32:40;8.38;;;6.20;;
67715;SDS011;54508;43.238;25.306;2022-12-24T03:35:06;8.57;;;5.75;;
67715;SDS011;54508;43.238;25.306;2022-12-24T03:37:32;8.57;;;6.38;;
67715;SDS011;54508;43.238;25.306;2022-12-24T03:39:57;7.93;;;6.15;;
67715;SDS011;54508;43.238;25.306;2022-12-24T03:42:23;8.30;;;6.07;;
67715;SDS011;54508;43.238;25.306;2022-12-24T03:44:48;8.13;;;6.50;;
67715;SDS011;54508;43.238;25.306;2022-12-24T03:47:14;8.00;;;6.07;;
67715;SDS011;54508;43.238;25.306;2022-12-24T03:49:39;8.13;;;6.28;;
67715;SDS011;54508;43.238;25.306;2022-12-24T03:52:05;7.83;;;6.10;;
67715;SDS011;54508;43.238;25.306;2022-12-24T03:54:30;7.53;;;6.13;;
67715;SDS011;54508;43.238;25.306;2022-12-24T03:56:56;8.17;;;6.17;;
67715;SDS011;54508;43.238;25.306;2022-12-24T03:59:21;7.90;;;5.68;;
67715;SDS011;54508;43.238;25.306;2022-12-24T04:01:47;8.00;;;6.00;;
67715;SDS011;54508;43.238;25.306;2022-12-24T04:04:12;8.00;;;5.83;;
67715;SDS011;54508;43.238;25.306;2022-12-24T04:06:38;7.67;;;5.80;;
67715;SDS011;54508;43.238;25.306;2022-12-24T04:09:03;8.25;;;6.00;;
67715;SDS011;54508;43.238;25.306;2022-12-24T04:11:29;7.75;;;5.57;;
67715;SDS011;54508;43.238;25.306;2022-12-24T04:13:55;7.35;;;5.68;;
67715;SDS011;54508;43.238;25.306;2022-12-24T04:16:21;7.93;;;6.20;;
67715;SDS011;54508;43.238;25.306;2022-12-24T04:18:47;7.40;;;5.85;;
67715;SDS011;54508;43.238;25.306;2022-12-24T04:21:12;7.70;;;5.73;;
67715;SDS011;54508;43.238;25.306;2022-12-24T04:23:38;8.15;;;5.82;;
67715;SDS011;54508;43.238;25.306;2022-12-24T04:26:05;8.25;;;6.32;;
67715;SDS011;54508;43.238;25.306;2022-12-24T04:28:32;8.40;;;6.10;;
67715;SDS011;54508;43.238;25.306;2022-12-24T04:31:02;8.48;;;6.28;;
67715;SDS011;54508;43.238;25.306;2022-12-24T04:33:30;8.27;;;5.93;;
67715;SDS011;54508;43.238;25.306;2022-12-24T04:35:59;9.37;;;7.00;;
67715;SDS011;54508;43.238;25.306;2022-12-24T04:38:26;7.95;;;6.20;;
67715;SDS011;54508;43.238;25.306;2022-12-24T04:40:58;9.43;;;5.88;;
67715;SDS011;54508;43.238;25.306;2022-12-24T04:43:25;8.07;;;6.25;;
67715;SDS011;54508;43.238;25.306;2022-12-24T04:45:51;10.00;;;6.47;;
67715;SDS011;54508;43.238;25.306;2022-12-24T04:48:17;9.05;;;6.38;;
67715;SDS011;54508;43.238;25.306;2022-12-24T04:50:42;8.07;;;6.33;;
67715;SDS011;54508;43.238;25.306;2022-12-24T04:53:08;7.73;;;6.33;;
67715;SDS011;54508;43.238;25.306;2022-12-24T04:55:33;9.30;;;7.10;;
67715;SDS011;54508;43.238;25.306;2022-12-24T04:57:59;9.43;;;7.50;;
67715;SDS011;54508;43.238;25.306;2022-12-24T05:00:24;9.27;;;6.80;;
67715;SDS011;54508;43.238;25.306;2022-12-24T05:02:50;9.00;;;6.43;;
67715;SDS011;54508;43.238;25.306;2022-12-24T05:05:16;10.27;;;6.63;;
67715;SDS011;54508;43.238;25.306;2022-12-24T05:07:41;10.10;;;7.17;;
67715;SDS011;54508;43.238;25.306;2022-12-24T05:10:07;7.83;;;6.50;;
67715;SDS011;54508;43.238;25.306;2022-12-24T05:12:33;8.30;;;6.35;;
67715;SDS011;54508;43.238;25.306;2022-12-24T05:14:58;9.30;;;7.10;;
67715;SDS011;54508;43.238;25.306;2022-12-24T05:17:24;8.93;;;6.77;;
67715;SDS011;54508;43.238;25.306;2022-12-24T05:19:49;7.43;;;6.50;;
67715;SDS011;54508;43.238;25.306;2022-12-24T05:22:15;8.00;;;6.83;;
67715;SDS011;54508;43.238;25.306;2022-12-24T05:24:58;8.70;;;7.15;;
67715;SDS011;54508;43.238;25.306;2022-12-24T05:27:42;8.52;;;6.82;;
67715;SDS011;54508;43.238;25.306;2022-12-24T05:30:08;7.93;;;6.80;;
67715;SDS011;54508;43.238;25.306;2022-12-24T05:32:34;8.23;;;6.33;;
67715;SDS011;54508;43.238;25.306;2022-12-24T05:34:59;8.93;;;7.20;;
67715;SDS011;54508;43.238;25.306;2022-12-24T05:37:25;8.53;;;6.93;;
67715;SDS011;54508;43.238;25.306;2022-12-24T05:39:50;9.03;;;6.90;;
67715;SDS011;54508;43.238;25.306;2022-12-24T05:42:16;7.67;;;6.47;;
67715;SDS011;54508;43.238;25.306;2022-12-24T05:44:41;8.85;;;7.25;;
67715;SDS011;54508;43.238;25.306;2022-12-24T05:47:06;8.40;;;6.55;;
67715;SDS011;54508;43.238;25.306;2022-12-24T05:49:32;8.50;;;6.60;;
67715;SDS011;54508;43.238;25.306;2022-12-24T05:51:58;8.30;;;6.50;;
67715;SDS011;54508;43.238;25.306;2022-12-24T05:54:23;8.77;;;6.83;;
67715;SDS011;54508;43.238;25.306;2022-12-24T05:56:49;9.40;;;7.23;;
67715;SDS011;54508;43.238;25.306;2022-12-24T05:59:14;8.13;;;6.77;;
67715;SDS011;54508;43.238;25.306;2022-12-24T06:01:40;9.40;;;7.00;;
67715;SDS011;54508;43.238;25.306;2022-12-24T06:04:09;9.10;;;7.20;;
67715;SDS011;54508;43.238;25.306;2022-12-24T06:06:34;9.32;;;7.22;;
67715;SDS011;54508;43.238;25.306;2022-12-24T06:09:00;9.75;;;7.28;;
67715;SDS011;54508;43.238;25.306;2022-12-24T06:11:26;9.50;;;7.30;;
67715;SDS011;54508;43.238;25.306;2022-12-24T06:13:52;9.85;;;7.22;;
67715;SDS011;54508;43.238;25.306;2022-12-24T06:16:18;10.27;;;7.88;;
67715;SDS011;54508;43.238;25.306;2022-12-24T06:18:44;10.30;;;7.23;;
67715;SDS011;54508;43.238;25.306;2022-12-24T06:21:10;9.23;;;7.60;;
67715;SDS011;54508;43.238;25.306;2022-12-24T06:23:37;18.95;;;12.48;;
67715;SDS011;54508;43.238;25.306;2022-12-24T06:26:04;16.65;;;13.38;;
67715;SDS011;54508;43.238;25.306;2022-12-24T06:28:32;18.63;;;13.15;;
67715;SDS011;54508;43.238;25.306;2022-12-24T06:30:59;18.92;;;13.15;;
67715;SDS011;54508;43.238;25.306;2022-12-24T06:33:28;24.75;;;13.98;;
67715;SDS011;54508;43.238;25.306;2022-12-24T06:35:54;20.17;;;14.10;;
67715;SDS011;54508;43.238;25.306;2022-12-24T06:38:19;17.70;;;13.43;;
67715;SDS011;54508;43.238;25.306;2022-12-24T06:40:45;17.20;;;12.77;;
67715;SDS011;54508;43.238;25.306;2022-12-24T06:43:11;16.77;;;11.57;;
67715;SDS011;54508;43.238;25.306;2022-12-24T06:45:37;16.40;;;11.35;;
67715;SDS011;54508;43.238;25.306;2022-12-24T06:48:03;13.85;;;11.10;;
67715;SDS011;54508;43.238;25.306;2022-12-24T06:50:31;14.43;;;11.73;;
67715;SDS011;54508;43.238;25.306;2022-12-24T06:52:57;14.60;;;10.98;;
67715;SDS011;54508;43.238;25.306;2022-12-24T06:55:22;15.03;;;11.17;;
67715;SDS011;54508;43.238;25.306;2022-12-24T06:57:48;18.58;;;11.70;;
67715;SDS011;54508;43.238;25.306;2022-12-24T07:00:13;16.70;;;11.57;;
67715;SDS011;54508;43.238;25.306;2022-12-24T07:02:42;19.90;;;12.53;;
67715;SDS011;54508;43.238;25.306;2022-12-24T07:05:09;16.83;;;11.57;;
67715;SDS011;54508;43.238;25.306;2022-12-24T07:07:36;19.48;;;12.55;;
67715;SDS011;54508;43.238;25.306;2022-12-24T07:10:03;26.60;;;18.60;;
67715;SDS011;54508;43.238;25.306;2022-12-24T07:12:29;28.27;;;16.92;;
67715;SDS011;54508;43.238;25.306;2022-12-24T07:14:54;20.83;;;16.42;;
67715;SDS011;54508;43.238;25.306;2022-12-24T07:17:20;37.77;;;23.47;;
67715;SDS011;54508;43.238;25.306;2022-12-24T07:19:45;28.40;;;19.53;;
67715;SDS011;54508;43.238;25.306;2022-12-24T07:22:11;24.13;;;17.75;;
67715;SDS011;54508;43.238;25.306;2022-12-24T07:24:36;26.87;;;18.23;;
67715;SDS011;54508;43.238;25.306;2022-12-24T07:27:02;22.37;;;15.97;;
67715;SDS011;54508;43.238;25.306;2022-12-24T07:29:27;21.13;;;16.50;;
67715;SDS011;54508;43.238;25.306;2022-12-24T07:31:53;25.40;;;16.95;;
67715;SDS011;54508;43.238;25.306;2022-12-24T07:34:18;21.67;;;15.53;;
67715;SDS011;54508;43.238;25.306;2022-12-24T07:36:43;23.73;;;15.30;;
67715;SDS011;54508;43.238;25.306;2022-12-24T07:39:09;20.20;;;15.48;;
67715;SDS011;54508;43.238;25.306;2022-12-24T07:41:34;20.33;;;14.87;;
67715;SDS011;54508;43.238;25.306;2022-12-24T07:44:00;19.47;;;14.40;;
67715;SDS011;54508;43.238;25.306;2022-12-24T07:46:25;21.03;;;14.27;;
67715;SDS011;54508;43.238;25.306;2022-12-24T07:48:51;17.95;;;13.23;;
67715;SDS011;54508;43.238;25.306;2022-12-24T07:51:16;17.53;;;13.03;;
67715;SDS011;54508;43.238;25.306;2022-12-24T07:53:42;18.10;;;12.77;;
67715;SDS011;54508;43.238;25.306;2022-12-24T07:56:14;19.45;;;16.90;;
67715;SDS011;54508;43.238;25.306;2022-12-24T07:58:41;27.42;;;20.83;;
67715;SDS011;54508;43.238;25.306;2022-12-24T08:01:07;57.30;;;41.90;;
67715;SDS011;54508;43.238;25.306;2022-12-24T08:03:33;63.63;;;46.10;;
67715;SDS011;54508;43.238;25.306;2022-12-24T08:05:58;53.42;;;37.65;;
67715;SDS011;54508;43.238;25.306;2022-12-24T08:08:24;77.00;;;52.78;;
67715;SDS011;54508;43.238;25.306;2022-12-24T08:10:50;68.57;;;47.07;;
67715;SDS011;54508;43.238;25.306;2022-12-24T08:13:16;49.60;;;35.78;;
67715;SDS011;54508;43.238;25.306;2022-12-24T08:15:42;28.17;;;21.65;;
67715;SDS011;54508;43.238;25.306;2022-12-24T08:18:08;40.65;;;33.67;;
67715;SDS011;54508;43.238;25.306;2022-12-24T08:20:36;32.47;;;24.65;;
67715;SDS011;54508;43.238;25.306;2022-12-24T08:23:04;28.02;;;21.45;;
67715;SDS011;54508;43.238;25.306;2022-12-24T08:25:30;26.35;;;20.40;;
67715;SDS011;54508;43.238;25.306;2022-12-24T08:27:56;27.37;;;19.97;;
67715;SDS011;54508;43.238;25.306;2022-12-24T08:30:22;23.60;;;18.17;;
67715;SDS011;54508;43.238;25.306;2022-12-24T08:32:47;23.67;;;17.30;;
67715;SDS011;54508;43.238;25.306;2022-12-24T08:35:13;23.37;;;17.70;;
67715;SDS011;54508;43.238;25.306;2022-12-24T08:37:38;21.23;;;16.42;;
67715;SDS011;54508;43.238;25.306;2022-12-24T08:40:04;20.17;;;14.80;;
67715;SDS011;54508;43.238;25.306;2022-12-24T08:42:31;23.27;;;15.80;;
67715;SDS011;54508;43.238;25.306;2022-12-24T08:44:57;23.57;;;15.87;;
67715;SDS011;54508;43.238;25.306;2022-12-24T08:47:22;21.57;;;15.07;;
67715;SDS011;54508;43.238;25.306;2022-12-24T08:49:47;22.80;;;14.67;;
67715;SDS011;54508;43.238;25.306;2022-12-24T08:52:13;19.73;;;12.68;;
67715;SDS011;54508;43.238;25.306;2022-12-24T08:54:38;24.70;;;13.43;;
67715;SDS011;54508;43.238;25.306;2022-12-24T08:57:04;17.57;;;13.13;;
67715;SDS011;54508;43.238;25.306;2022-12-24T08:59:29;15.93;;;12.23;;
67715;SDS011;54508;43.238;25.306;2022-12-24T09:01:55;14.52;;;12.50;;
67715;SDS011;54508;43.238;25.306;2022-12-24T09:04:20;16.77;;;12.23;;
67715;SDS011;54508;43.238;25.306;2022-12-24T09:06:45;20.63;;;12.10;;
67715;SDS011;54508;43.238;25.306;2022-12-24T09:09:11;15.47;;;11.57;;
67715;SDS011;54508;43.238;25.306;2022-12-24T09:11:36;16.17;;;12.07;;
67715;SDS011;54508;43.238;25.306;2022-12-24T09:14:02;16.45;;;12.13;;
67715;SDS011;54508;43.238;25.306;2022-12-24T09:16:27;18.10;;;12.87;;
67715;SDS011;54508;43.238;25.306;2022-12-24T09:18:53;19.73;;;14.17;;
67715;SDS011;54508;43.238;25.306;2022-12-24T09:21:18;20.93;;;15.37;;
67715;SDS011;54508;43.238;25.306;2022-12-24T09:23:44;16.08;;;13.35;;
67715;SDS011;54508;43.238;25.306;2022-12-24T09:28:43;16.63;;;12.52;;
67715;SDS011;54508;43.238;25.306;2022-12-24T09:31:09;17.17;;;12.52;;
67715;SDS011;54508;43.238;25.306;2022-12-24T09:33:36;30.55;;;18.52;;
67715;SDS011;54508;43.238;25.306;2022-12-24T09:36:02;27.45;;;18.88;;
67715;SDS011;54508;43.238;25.306;2022-12-24T09:38:28;30.45;;;18.83;;
67715;SDS011;54508;43.238;25.306;2022-12-24T09:40:55;20.98;;;15.32;;
67715;SDS011;54508;43.238;25.306;2022-12-24T09:43:22;20.63;;;13.38;;
67715;SDS011;54508;43.238;25.306;2022-12-24T09:45:52;23.30;;;14.48;;
67715;SDS011;54508;43.238;25.306;2022-12-24T09:48:39;23.13;;;14.40;;
67715;SDS011;54508;43.238;25.306;2022-12-24T09:51:08;21.95;;;13.80;;
67715;SDS011;54508;43.238;25.306;2022-12-24T09:53:47;25.63;;;14.30;;
67715;SDS011;54508;43.238;25.306;2022-12-24T09:56:18;18.70;;;14.35;;
67715;SDS011;54508;43.238;25.306;2022-12-24T09:58:56;59.47;;;36.78;;
67715;SDS011;54508;43.238;25.306;2022-12-24T10:01:24;72.95;;;45.60;;
67715;SDS011;54508;43.238;25.306;2022-12-24T10:03:50;55.72;;;35.03;;
67715;SDS011;54508;43.238;25.306;2022-12-24T10:06:19;65.40;;;33.23;;
67715;SDS011;54508;43.238;25.306;2022-12-24T10:11:49;41.75;;;28.17;;
67715;SDS011;54508;43.238;25.306;2022-12-24T10:20:10;33.13;;;22.50;;
67715;SDS011;54508;43.238;25.306;2022-12-24T10:22:52;30.85;;;22.27;;
67715;SDS011;54508;43.238;25.306;2022-12-24T10:27:51;28.33;;;20.50;;
67715;SDS011;54508;43.238;25.306;2022-12-24T10:30:20;31.15;;;21.85;;
67715;SDS011;54508;43.238;25.306;2022-12-24T10:32:47;31.15;;;20.63;;
67715;SDS011;54508;43.238;25.306;2022-12-24T10:37:45;31.90;;;21.30;;
67715;SDS011;54508;43.238;25.306;2022-12-24T10:40:27;37.75;;;21.55;;
67715;SDS011;54508;43.238;25.306;2022-12-24T10:42:58;33.13;;;22.27;;
67715;SDS011;54508;43.238;25.306;2022-12-24T10:45:25;56.72;;;23.88;;
67715;SDS011;54508;43.238;25.306;2022-12-24T10:47:56;32.80;;;21.92;;
67715;SDS011;54508;43.238;25.306;2022-12-24T10:52:54;33.28;;;23.38;;
67715;SDS011;54508;43.238;25.306;2022-12-24T10:55:46;34.63;;;22.67;;
67715;SDS011;54508;43.238;25.306;2022-12-24T10:58:13;33.47;;;23.35;;
67715;SDS011;54508;43.238;25.306;2022-12-24T11:00:40;30.52;;;24.55;;
67715;SDS011;54508;43.238;25.306;2022-12-24T11:05:37;44.50;;;28.27;;
67715;SDS011;54508;43.238;25.306;2022-12-24T11:10:41;67.75;;;39.35;;
67715;SDS011;54508;43.238;25.306;2022-12-24T11:13:21;59.45;;;38.35;;
67715;SDS011;54508;43.238;25.306;2022-12-24T11:15:58;61.53;;;40.65;;
67715;SDS011;54508;43.238;25.306;2022-12-24T11:18:26;57.80;;;39.63;;
67715;SDS011;54508;43.238;25.306;2022-12-24T11:20:52;55.70;;;38.90;;
67715;SDS011;54508;43.238;25.306;2022-12-24T11:23:17;56.83;;;37.83;;
67715;SDS011;54508;43.238;25.306;2022-12-24T11:25:46;54.57;;;36.03;;
67715;SDS011;54508;43.238;25.306;2022-12-24T11:28:20;59.72;;;34.22;;
67715;SDS011;54508;43.238;25.306;2022-12-24T11:30:54;47.53;;;34.28;;
67715;SDS011;54508;43.238;25.306;2022-12-24T11:33:26;47.50;;;32.30;;
67715;SDS011;54508;43.238;25.306;2022-12-24T11:35:55;44.88;;;31.70;;
67715;SDS011;54508;43.238;25.306;2022-12-24T11:38:25;47.55;;;29.23;;
67715;SDS011;54508;43.238;25.306;2022-12-24T11:41:05;37.20;;;27.15;;
67715;SDS011;54508;43.238;25.306;2022-12-24T11:43:42;40.47;;;27.10;;
67715;SDS011;54508;43.238;25.306;2022-12-24T11:46:17;35.17;;;26.17;;
67715;SDS011;54508;43.238;25.306;2022-12-24T11:49:36;35.95;;;27.42;;
67715;SDS011;54508;43.238;25.306;2022-12-24T11:51:41;33.50;;;25.50;;
67715;SDS011;54508;43.238;25.306;2022-12-24T11:54:25;31.08;;;24.73;;
67715;SDS011;54508;43.238;25.306;2022-12-24T11:56:52;31.77;;;24.08;;
67715;SDS011;54508;43.238;25.306;2022-12-24T11:59:28;31.90;;;24.30;;
67715;SDS011;54508;43.238;25.306;2022-12-24T12:01:57;30.08;;;23.20;;
67715;SDS011;54508;43.238;25.306;2022-12-24T12:04:28;30.33;;;22.83;;
67715;SDS011;54508;43.238;25.306;2022-12-24T12:09:40;28.73;;;22.30;;
67715;SDS011;54508;43.238;25.306;2022-12-24T12:12:09;30.70;;;22.00;;
67715;SDS011;54508;43.238;25.306;2022-12-24T12:14:51;32.22;;;21.67;;
67715;SDS011;54508;43.238;25.306;2022-12-24T12:17:31;29.58;;;21.45;;
67715;SDS011;54508;43.238;25.306;2022-12-24T12:20:21;26.45;;;20.55;;
67715;SDS011;54508;43.238;25.306;2022-12-24T12:34:08;21.40;;;17.35;;
67715;SDS011;54508;43.238;25.306;2022-12-24T12:37:24;22.92;;;17.98;;
67715;SDS011;54508;43.238;25.306;2022-12-24T12:39:34;22.50;;;16.60;;
67715;SDS011;54508;43.238;25.306;2022-12-24T12:47:53;20.45;;;16.08;;
67715;SDS011;54508;43.238;25.306;2022-12-24T12:50:30;19.25;;;15.50;;
67715;SDS011;54508;43.238;25.306;2022-12-24T12:58:14;19.25;;;14.75;;
67715;SDS011;54508;43.238;25.306;2022-12-24T13:01:21;16.80;;;13.52;;
67715;SDS011;54508;43.238;25.306;2022-12-24T13:07:02;17.37;;;13.13;;
67715;SDS011;54508;43.238;25.306;2022-12-24T13:12:17;17.45;;;12.75;;
67715;SDS011;54508;43.238;25.306;2022-12-24T13:20:17;16.67;;;12.32;;
67715;SDS011;54508;43.238;25.306;2022-12-24T13:22:49;14.98;;;12.13;;
67715;SDS011;54508;43.238;25.306;2022-12-24T13:25:25;14.43;;;11.83;;
67715;SDS011;54508;43.238;25.306;2022-12-24T13:30:50;13.10;;;11.10;;
67715;SDS011;54508;43.238;25.306;2022-12-24T13:36:03;14.07;;;11.55;;
67715;SDS011;54508;43.238;25.306;2022-12-24T13:39:14;15.83;;;11.33;;
67715;SDS011;54508;43.238;25.306;2022-12-24T13:49:28;14.48;;;11.02;;
67715;SDS011;54508;43.238;25.306;2022-12-24T13:52:12;13.80;;;11.00;;
67715;SDS011;54508;43.238;25.306;2022-12-24T13:59:55;14.00;;;10.95;;
67715;SDS011;54508;43.238;25.306;2022-12-24T14:02:23;12.60;;;9.88;;
67715;SDS011;54508;43.238;25.306;2022-12-24T14:04:50;13.30;;;10.87;;
67715;SDS011;54508;43.238;25.306;2022-12-24T14:07:16;13.57;;;10.38;;
67715;SDS011;54508;43.238;25.306;2022-12-24T14:09:46;11.88;;;10.05;;
67715;SDS011;54508;43.238;25.306;2022-12-24T14:12:14;15.90;;;11.10;;
67715;SDS011;54508;43.238;25.306;2022-12-24T14:14:53;11.57;;;10.15;;
67715;SDS011;54508;43.238;25.306;2022-12-24T14:17:25;13.68;;;10.63;;
67715;SDS011;54508;43.238;25.306;2022-12-24T14:19:52;12.60;;;9.63;;
67715;SDS011;54508;43.238;25.306;2022-12-24T14:24:55;12.07;;;9.93;;
67715;SDS011;54508;43.238;25.306;2022-12-24T14:27:32;14.38;;;11.48;;
67715;SDS011;54508;43.238;25.306;2022-12-24T14:30:04;12.80;;;10.43;;
67715;SDS011;54508;43.238;25.306;2022-12-24T14:32:39;14.65;;;10.82;;
67715;SDS011;54508;43.238;25.306;2022-12-24T14:35:06;15.10;;;11.15;;
67715;SDS011;54508;43.238;25.306;2022-12-24T14:37:46;15.73;;;11.15;;
67715;SDS011;54508;43.238;25.306;2022-12-24T14:40:17;14.48;;;10.55;;
67715;SDS011;54508;43.238;25.306;2022-12-24T14:42:53;14.55;;;11.05;;
67715;SDS011;54508;43.238;25.306;2022-12-24T14:48:10;14.48;;;10.93;;
67715;SDS011;54508;43.238;25.306;2022-12-24T14:56:18;14.77;;;11.63;;
67715;SDS011;54508;43.238;25.306;2022-12-24T14:58:44;14.40;;;11.48;;
67715;SDS011;54508;43.238;25.306;2022-12-24T15:04:13;15.52;;;11.32;;
67715;SDS011;54508;43.238;25.306;2022-12-24T15:06:40;15.68;;;11.07;;
67715;SDS011;54508;43.238;25.306;2022-12-24T15:09:23;15.18;;;11.63;;
67715;SDS011;54508;43.238;25.306;2022-12-24T15:11:58;14.77;;;10.90;;
67715;SDS011;54508;43.238;25.306;2022-12-24T15:14:27;15.63;;;11.32;;
67715;SDS011;54508;43.238;25.306;2022-12-24T15:21:50;14.77;;;10.85;;
67715;SDS011;54508;43.238;25.306;2022-12-24T15:24:22;16.20;;;10.93;;
67715;SDS011;54508;43.238;25.306;2022-12-24T15:26:52;15.77;;;12.27;;
67715;SDS011;54508;43.238;25.306;2022-12-24T15:29:25;16.25;;;11.45;;
67715;SDS011;54508;43.238;25.306;2022-12-24T15:31:56;14.80;;;11.18;;
67715;SDS011;54508;43.238;25.306;2022-12-24T15:34:39;14.43;;;11.68;;
67715;SDS011;54508;43.238;25.306;2022-12-24T15:39:34;15.25;;;11.48;;
67715;SDS011;54508;43.238;25.306;2022-12-24T15:42:00;17.38;;;12.48;;
67715;SDS011;54508;43.238;25.306;2022-12-24T15:44:39;13.63;;;11.45;;
67715;SDS011;54508;43.238;25.306;2022-12-24T15:47:35;16.70;;;12.38;;
67715;SDS011;54508;43.238;25.306;2022-12-24T15:50:03;14.90;;;12.00;;
67715;SDS011;54508;43.238;25.306;2022-12-24T15:52:38;15.43;;;11.13;;
67715;SDS011;54508;43.238;25.306;2022-12-24T15:55:22;15.93;;;12.55;;
67715;SDS011;54508;43.238;25.306;2022-12-24T15:57:58;15.50;;;12.32;;
67715;SDS011;54508;43.238;25.306;2022-12-24T16:00:27;17.40;;;12.88;;
67715;SDS011;54508;43.238;25.306;2022-12-24T16:03:08;18.35;;;13.38;;
67715;SDS011;54508;43.238;25.306;2022-12-24T16:05:44;17.30;;;12.75;;
67715;SDS011;54508;43.238;25.306;2022-12-24T16:10:49;17.47;;;13.40;;
67715;SDS011;54508;43.238;25.306;2022-12-24T16:13:24;16.20;;;13.25;;
67715;SDS011;54508;43.238;25.306;2022-12-24T16:15:56;17.80;;;14.10;;
67715;SDS011;54508;43.238;25.306;2022-12-24T16:18:30;17.90;;;12.82;;
67715;SDS011;54508;43.238;25.306;2022-12-24T16:20:57;21.08;;;14.25;;
67715;SDS011;54508;43.238;25.306;2022-12-24T16:23:25;20.97;;;14.53;;
67715;SDS011;54508;43.238;25.306;2022-12-24T16:26:01;19.20;;;14.52;;
67715;SDS011;54508;43.238;25.306;2022-12-24T16:28:27;19.73;;;14.40;;
67715;SDS011;54508;43.238;25.306;2022-12-24T16:30:52;18.17;;;14.02;;
67715;SDS011;54508;43.238;25.306;2022-12-24T16:33:19;21.20;;;14.48;;
67715;SDS011;54508;43.238;25.306;2022-12-24T16:35:45;19.90;;;13.82;;
67715;SDS011;54508;43.238;25.306;2022-12-24T16:38:11;18.85;;;14.00;;
67715;SDS011;54508;43.238;25.306;2022-12-24T16:40:39;20.37;;;14.67;;
67715;SDS011;54508;43.238;25.306;2022-12-24T16:43:05;18.27;;;13.85;;
67715;SDS011;54508;43.238;25.306;2022-12-24T16:45:50;23.95;;;16.80;;